createdAt,value
2022-12-13T00:00:40.760Z,-5.29
2022-12-13T00:01:45.271Z,-5.27
2022-12-13T00:02:47.421Z,-5.28
2022-12-13T00:03:50.720Z,-5.26
2022-12-13T00:04:53.744Z,-5.25
2022-12-13T00:05:55.852Z,-5.25
2022-12-13T00:06:58.884Z,-5.24
2022-12-13T00:08:01.877Z,-5.22
2022-12-13T00:09:07.253Z,-5.21
2022-12-13T00:10:09.683Z,-5.20
2022-12-13T00:11:14.787Z,-5.19
2022-12-13T00:12:17.930Z,-5.17
2022-12-13T00:13:19.929Z,-5.16
2022-12-13T00:14:23.095Z,-5.14
2022-12-13T00:15:25.096Z,-5.14
2022-12-13T00:16:28.650Z,-5.12
2022-12-13T00:17:32.095Z,-5.11
2022-12-13T00:18:35.309Z,-5.10
2022-12-13T00:19:38.647Z,-5.09
2022-12-13T00:20:40.710Z,-5.09
2022-12-13T00:21:43.863Z,-5.08
2022-12-13T00:22:45.900Z,-5.07
2022-12-13T00:23:49.431Z,-5.24
2022-12-13T00:24:55.088Z,-5.06
2022-12-13T00:26:02.661Z,-5.05
2022-12-13T00:27:06.019Z,-5.03
2022-12-13T00:28:08.591Z,-5.03
2022-12-13T00:29:12.255Z,-5.03
2022-12-13T00:30:14.580Z,-5.02
2022-12-13T00:32:41.603Z,-5.01
2022-12-13T00:33:43.774Z,-5.02
2022-12-13T00:34:46.948Z,-4.99
2022-12-13T00:35:49.114Z,-5.00
2022-12-13T00:36:52.299Z,-4.98
2022-12-13T00:37:54.444Z,-4.99
2022-12-13T00:39:03.433Z,-4.99
2022-12-13T00:40:08.362Z,-4.99
2022-12-13T00:41:13.896Z,-5.02
2022-12-13T00:42:17.080Z,-4.99
2022-12-13T00:43:19.286Z,-5.01
2022-12-13T00:44:22.500Z,-5.00
2022-12-13T00:45:25.646Z,-5.00
2022-12-13T00:46:28.680Z,-5.01
2022-12-13T00:47:31.999Z,-5.01
2022-12-13T00:48:34.130Z,-5.01
2022-12-13T00:49:37.321Z,-5.02
2022-12-13T00:50:39.518Z,-5.02
2022-12-13T00:51:42.838Z,-5.02
2022-12-13T00:52:46.200Z,-5.05
2022-12-13T00:53:48.510Z,-5.06
2022-12-13T00:54:51.659Z,-5.06
2022-12-13T00:55:55.183Z,-5.07
2022-12-13T00:56:58.398Z,-5.07
2022-12-13T00:58:00.628Z,-5.07
2022-12-13T00:59:04.658Z,-5.09
2022-12-13T01:00:09.322Z,-5.11
2022-12-13T01:01:13.644Z,-5.11
2022-12-13T01:02:16.851Z,-5.12
2022-12-13T01:03:25.446Z,-5.13
2022-12-13T01:04:28.685Z,-5.15
2022-12-13T01:06:04.152Z,-5.15
2022-12-13T01:06:55.252Z,-5.15
2022-12-13T01:07:57.939Z,-5.15
2022-12-13T01:09:01.843Z,-5.16
2022-12-13T01:10:07.255Z,-5.15
2022-12-13T01:11:11.672Z,-5.14
2022-12-13T01:12:15.334Z,-5.14
2022-12-13T01:13:17.589Z,-5.15
2022-12-13T01:14:20.947Z,-5.13
2022-12-13T01:15:23.237Z,-5.11
2022-12-13T01:16:26.592Z,-5.12
2022-12-13T01:17:30.732Z,-5.11
2022-12-13T01:18:34.047Z,-5.11
2022-12-13T01:19:37.294Z,-5.12
2022-12-13T01:20:39.527Z,-5.09
2022-12-13T01:21:42.812Z,-5.09
2022-12-13T01:22:46.067Z,-5.08
2022-12-13T01:23:48.279Z,-5.09
2022-12-13T01:24:51.426Z,-5.07
2022-12-13T01:25:53.722Z,-5.08
2022-12-13T01:26:58.333Z,-5.07
2022-12-13T01:28:00.537Z,-5.06
2022-12-13T01:29:05.353Z,-5.07
2022-12-13T01:30:08.187Z,-5.05
2022-12-13T01:31:13.100Z,-5.05
2022-12-13T01:32:16.297Z,-5.06
2022-12-13T01:33:18.878Z,-5.03
2022-12-13T01:34:26.304Z,-5.03
2022-12-13T01:35:29.004Z,-5.01
2022-12-13T01:36:32.157Z,-4.99
2022-12-13T01:37:40.474Z,-4.98
2022-12-13T01:38:43.884Z,-5.00
2022-12-13T01:39:47.056Z,-4.95
2022-12-13T01:40:57.767Z,-4.94
2022-12-13T01:42:05.435Z,-4.91
2022-12-13T01:43:14.895Z,-4.91
2022-12-13T01:44:55.048Z,-4.88
2022-12-13T01:45:58.273Z,-4.87
2022-12-13T01:47:01.142Z,-4.86
2022-12-13T01:48:07.782Z,-4.85
2022-12-13T01:49:20.066Z,-4.85
2022-12-13T01:50:27.305Z,-4.84
2022-12-13T01:51:35.300Z,-4.83
2022-12-13T01:52:38.566Z,-4.82
2022-12-13T01:53:44.862Z,-4.82
2022-12-13T01:54:51.083Z,-4.80
2022-12-13T01:55:58.262Z,-4.79
2022-12-13T01:57:03.476Z,-4.78
2022-12-13T01:58:08.071Z,-4.76
2022-12-13T01:59:11.772Z,-4.75
2022-12-13T02:00:16.714Z,-4.76
2022-12-13T02:01:19.221Z,-4.73
2022-12-13T02:02:23.242Z,-4.73
2022-12-13T02:03:26.537Z,-4.73
2022-12-13T02:04:32.106Z,-4.71
2022-12-13T02:05:38.314Z,-4.74
2022-12-13T02:06:44.640Z,-4.70
2022-12-13T02:07:47.880Z,-4.70
2022-12-13T02:08:51.086Z,-4.69
2022-12-13T02:09:56.361Z,-4.68
2022-12-13T02:11:00.579Z,-4.71
2022-12-13T02:12:04.958Z,-4.74
2022-12-13T02:13:09.546Z,-4.70
2022-12-13T02:14:12.718Z,-4.70
2022-12-13T02:15:17.699Z,-4.70
2022-12-13T02:16:38.887Z,-4.71
2022-12-13T02:17:58.221Z,-4.70
2022-12-13T02:19:38.462Z,-4.69
2022-12-13T02:21:18.172Z,-4.68
2022-12-13T02:22:38.863Z,-4.65
2022-12-13T02:23:56.725Z,-4.62
2022-12-13T02:25:20.741Z,-4.61
2022-12-13T02:26:57.917Z,-4.61
2022-12-13T02:28:31.845Z,-4.59
2022-12-13T02:30:04.029Z,-4.56
2022-12-13T02:31:13.744Z,-4.53
2022-12-13T02:32:22.150Z,-4.52
2022-12-13T02:33:39.241Z,-4.49
2022-12-13T02:34:46.026Z,-4.46
2022-12-13T02:35:54.306Z,-4.43
2022-12-13T02:37:03.197Z,-4.39
2022-12-13T02:38:13.024Z,-4.37
2022-12-13T02:39:30.636Z,-4.34
2022-12-13T02:40:39.614Z,-4.30
2022-12-13T02:41:49.945Z,-4.26
2022-12-13T02:43:00.307Z,-4.23
2022-12-13T02:44:21.654Z,-4.21
2022-12-13T02:45:30.440Z,-4.19
2022-12-13T02:46:40.838Z,-4.16
2022-12-13T02:47:44.356Z,-4.13
2022-12-13T02:48:51.195Z,-4.15
2022-12-13T02:49:58.200Z,-4.10
2022-12-13T02:51:04.319Z,-4.08
2022-12-13T02:52:08.316Z,-4.07
2022-12-13T02:53:13.963Z,-4.06
2022-12-13T02:54:16.111Z,-4.07
2022-12-13T02:55:21.145Z,-4.06
2022-12-13T02:56:27.129Z,-4.06
2022-12-13T02:57:31.551Z,-4.08
2022-12-13T02:58:37.678Z,-4.11
2022-12-13T02:59:40.652Z,-4.08
2022-12-13T03:00:55.512Z,-4.10
2022-12-13T03:02:12.522Z,-4.11
2022-12-13T03:03:34.199Z,-4.11
2022-12-13T03:05:06.610Z,-4.11
2022-12-13T03:06:34.157Z,-4.13
2022-12-13T03:07:41.325Z,-4.12
2022-12-13T03:08:53.266Z,-4.13
2022-12-13T03:10:02.095Z,-4.15
2022-12-13T03:11:08.535Z,-4.14
2022-12-13T03:12:40.865Z,-4.13
2022-12-13T03:13:52.070Z,-4.12
2022-12-13T03:14:58.754Z,-4.10
2022-12-13T03:16:09.669Z,-4.09
2022-12-13T03:17:18.129Z,-4.08
2022-12-13T03:18:22.424Z,-4.14
2022-12-13T03:19:26.042Z,-4.05
2022-12-13T03:20:29.554Z,-4.07
2022-12-13T03:21:44.081Z,-4.04
2022-12-13T03:22:50.922Z,-4.04
2022-12-13T03:23:54.585Z,-4.05
2022-12-13T03:24:56.808Z,-4.03
2022-12-13T03:26:06.209Z,-4.04
2022-12-13T03:27:09.397Z,-4.06
2022-12-13T03:28:12.715Z,-4.05
2022-12-13T03:29:24.637Z,-4.03
2022-12-13T03:30:28.214Z,-4.01
2022-12-13T03:31:32.103Z,-4.00
2022-12-13T03:32:35.737Z,-3.98
2022-12-13T03:33:39.710Z,-3.96
2022-12-13T03:34:43.282Z,-3.94
2022-12-13T03:35:48.234Z,-3.92
2022-12-13T03:36:50.494Z,-3.92
2022-12-13T03:37:53.950Z,-3.91
2022-12-13T03:38:57.607Z,-3.89
2022-12-13T03:40:00.037Z,-3.87
2022-12-13T03:41:05.644Z,-3.87
2022-12-13T03:42:07.915Z,-3.86
2022-12-13T03:43:11.189Z,-3.86
2022-12-13T03:44:13.986Z,-3.86
2022-12-13T03:45:18.882Z,-3.88
2022-12-13T03:46:21.079Z,-3.86
2022-12-13T03:47:24.282Z,-3.86
2022-12-13T03:48:28.273Z,-3.87
2022-12-13T03:49:35.752Z,-3.89
2022-12-13T03:50:38.109Z,-3.91
2022-12-13T03:51:41.765Z,-3.91
2022-12-13T03:52:44.434Z,-3.93
2022-12-13T03:53:48.143Z,-3.96
2022-12-13T03:54:50.362Z,-3.97
2022-12-13T03:55:53.914Z,-3.99
2022-12-13T03:56:56.097Z,-4.01
2022-12-13T03:58:03.232Z,-4.03
2022-12-13T03:59:09.411Z,-4.10
2022-12-13T04:00:13.265Z,-4.06
2022-12-13T04:01:18.226Z,-4.08
2022-12-13T04:02:30.671Z,-4.09
2022-12-13T04:03:36.921Z,-4.11
2022-12-13T04:04:39.135Z,-4.14
2022-12-13T04:05:42.563Z,-4.15
2022-12-13T04:06:45.803Z,-4.18
2022-12-13T04:07:48.728Z,-4.17
2022-12-13T04:08:52.684Z,-4.18
2022-12-13T04:09:54.977Z,-4.18
2022-12-13T04:10:58.257Z,-4.18
2022-12-13T04:12:18.776Z,-4.20
2022-12-13T04:13:32.981Z,-4.16
2022-12-13T04:14:36.302Z,-4.17
2022-12-13T04:15:39.325Z,-4.16
2022-12-13T04:16:42.560Z,-4.15
2022-12-13T04:17:44.688Z,-4.13
2022-12-13T04:18:55.772Z,-4.13
2022-12-13T04:19:57.906Z,-4.10
2022-12-13T04:21:01.068Z,-4.09
2022-12-13T04:22:03.263Z,-4.08
2022-12-13T04:23:10.171Z,-4.06
2022-12-13T04:24:13.966Z,-4.05
2022-12-13T04:25:16.587Z,-4.02
2022-12-13T04:26:20.633Z,-4.03
2022-12-13T04:27:22.827Z,-4.00
2022-12-13T04:28:26.056Z,-3.98
2022-12-13T04:29:34.107Z,-3.96
2022-12-13T04:30:38.440Z,-3.93
2022-12-13T04:31:41.898Z,-3.91
2022-12-13T04:32:44.212Z,-3.90
2022-12-13T04:33:47.415Z,-3.88
2022-12-13T04:34:50.950Z,-3.86
2022-12-13T04:35:54.231Z,-3.85
2022-12-13T04:36:56.445Z,-3.81
2022-12-13T04:37:59.988Z,-3.78
2022-12-13T04:39:02.725Z,-3.76
2022-12-13T04:40:07.228Z,-3.74
2022-12-13T04:41:15.514Z,-3.70
2022-12-13T04:42:18.713Z,-3.66
2022-12-13T04:43:22.178Z,-3.64
2022-12-13T04:44:28.155Z,-3.63
2022-12-13T04:45:33.310Z,-3.59
2022-12-13T04:46:35.519Z,-3.57
2022-12-13T04:47:38.723Z,-3.55
2022-12-13T04:48:40.863Z,-3.53
2022-12-13T04:49:44.009Z,-3.51
2022-12-13T04:50:47.685Z,-3.48
2022-12-13T04:51:52.735Z,-3.46
2022-12-13T04:52:59.187Z,-3.44
2022-12-13T04:54:23.555Z,-3.42
2022-12-13T04:55:24.580Z,-3.39
2022-12-13T04:56:26.705Z,-3.36
2022-12-13T04:57:29.812Z,-3.35
2022-12-13T04:58:32.421Z,-3.34
2022-12-13T04:59:35.788Z,-3.32
2022-12-13T05:00:39.943Z,-3.31
2022-12-13T05:01:47.601Z,-3.30
2022-12-13T05:02:49.936Z,-3.29
2022-12-13T05:03:53.291Z,-3.27
2022-12-13T05:04:55.460Z,-3.25
2022-12-13T05:06:00.828Z,-3.26
2022-12-13T05:07:03.728Z,-3.24
2022-12-13T05:08:07.122Z,-3.21
2022-12-13T05:09:11.323Z,-3.20
2022-12-13T05:10:34.129Z,-3.20
2022-12-13T05:11:38.896Z,-3.18
2022-12-13T05:12:48.182Z,-3.18
2022-12-13T05:13:51.433Z,-3.16
2022-12-13T05:14:54.044Z,-3.13
2022-12-13T05:15:57.757Z,-3.13
2022-12-13T05:17:00.130Z,-3.12
2022-12-13T05:18:09.786Z,-3.12
2022-12-13T05:19:13.965Z,-3.10
2022-12-13T05:20:16.298Z,-3.07
2022-12-13T05:21:20.874Z,-3.06
2022-12-13T05:22:23.107Z,-3.05
2022-12-13T05:23:26.349Z,-3.03
2022-12-13T05:24:28.723Z,-3.01
2022-12-13T05:25:32.021Z,-3.00
2022-12-13T05:26:35.267Z,-2.98
2022-12-13T05:27:38.520Z,-2.97
2022-12-13T05:28:40.683Z,-2.95
2022-12-13T05:29:43.901Z,-2.93
2022-12-13T05:30:46.124Z,-2.93
2022-12-13T05:31:49.576Z,-2.93
2022-12-13T05:32:52.848Z,-2.93
2022-12-13T05:33:55.162Z,-2.92
2022-12-13T05:35:05.078Z,-2.92
2022-12-13T05:36:08.168Z,-2.91
2022-12-13T05:37:12.770Z,-2.90
2022-12-13T05:38:15.513Z,-2.89
2022-12-13T05:39:29.432Z,-2.88
2022-12-13T05:40:32.659Z,-2.85
2022-12-13T05:41:38.007Z,-2.85
2022-12-13T05:42:40.166Z,-2.84
2022-12-13T05:43:43.904Z,-2.82
2022-12-13T05:44:46.250Z,-2.84
2022-12-13T05:45:49.585Z,-2.82
2022-12-13T05:46:51.815Z,-2.83
2022-12-13T05:47:55.138Z,-2.82
2022-12-13T05:48:57.258Z,-2.83
2022-12-13T05:50:00.719Z,-2.81
2022-12-13T05:51:11.080Z,-2.82
2022-12-13T05:52:19.045Z,-2.82
2022-12-13T05:53:30.858Z,-2.81
2022-12-13T05:54:34.459Z,-2.82
2022-12-13T05:55:38.813Z,-2.81
2022-12-13T05:56:41.029Z,-2.81
2022-12-13T05:57:50.379Z,-2.80
2022-12-13T05:58:54.416Z,-2.80
2022-12-13T05:59:58.827Z,-2.79
2022-12-13T06:01:06.759Z,-2.79
2022-12-13T06:02:10.024Z,-2.77
2022-12-13T06:03:12.464Z,-2.76
2022-12-13T06:04:22.347Z,-2.75
2022-12-13T06:05:26.204Z,-2.73
2022-12-13T06:06:30.156Z,-2.72
2022-12-13T06:07:33.977Z,-2.73
2022-12-13T06:08:38.135Z,-2.69
2022-12-13T06:09:40.373Z,-2.68
2022-12-13T06:10:43.572Z,-2.66
2022-12-13T06:11:45.738Z,-2.67
2022-12-13T06:12:48.933Z,-2.65
2022-12-13T06:13:52.330Z,-2.64
2022-12-13T06:15:04.809Z,-2.63
2022-12-13T06:16:25.435Z,-2.62
2022-12-13T06:17:31.027Z,-2.60
2022-12-13T06:18:35.774Z,-2.65
2022-12-13T06:19:39.042Z,-2.61
2022-12-13T06:20:41.282Z,-2.62
2022-12-13T06:21:46.433Z,-2.62
2022-12-13T06:22:51.161Z,-2.64
2022-12-13T06:23:56.461Z,-2.63
2022-12-13T06:25:01.577Z,-2.64
2022-12-13T06:26:05.197Z,-2.66
2022-12-13T06:27:08.351Z,-2.67
2022-12-13T06:28:11.522Z,-2.67
2022-12-13T06:29:24.540Z,-2.68
2022-12-13T06:30:28.488Z,-2.70
2022-12-13T06:31:30.628Z,-2.72
2022-12-13T06:32:33.826Z,-2.73
2022-12-13T06:33:36.719Z,-2.75
2022-12-13T06:34:39.928Z,-2.77
2022-12-13T06:35:42.344Z,-2.78
2022-12-13T06:36:45.492Z,-2.80
2022-12-13T06:37:54.414Z,-2.81
2022-12-13T06:39:05.186Z,-2.83
2022-12-13T06:40:09.336Z,-2.85
2022-12-13T06:41:17.186Z,-2.85
2022-12-13T06:42:21.852Z,-2.86
2022-12-13T06:43:24.599Z,-2.86
2022-12-13T06:44:27.964Z,-2.86
2022-12-13T06:45:31.115Z,-2.85
2022-12-13T06:46:34.492Z,-2.86
2022-12-13T06:47:37.857Z,-2.86
2022-12-13T06:48:40.701Z,-2.85
2022-12-13T06:49:44.808Z,-3.24
2022-12-13T06:50:48.673Z,-2.85
2022-12-13T06:51:51.890Z,-2.86
2022-12-13T06:52:56.598Z,-2.85
2022-12-13T06:54:00.935Z,-2.85
2022-12-13T06:55:04.573Z,-2.92
2022-12-13T06:56:09.702Z,-2.86
2022-12-13T06:57:12.927Z,-2.87
2022-12-13T06:58:16.114Z,-2.84
2022-12-13T06:59:19.340Z,-2.83
2022-12-13T07:00:24.939Z,-2.81
2022-12-13T07:01:36.989Z,-2.80
2022-12-13T07:02:40.156Z,-2.79
2022-12-13T07:03:43.612Z,-2.79
2022-12-13T07:04:46.866Z,-2.76
2022-12-13T07:05:52.442Z,-2.74
2022-12-13T07:07:01.401Z,-2.72
2022-12-13T07:08:07.440Z,-2.71
2022-12-13T07:09:10.728Z,-2.68
2022-12-13T07:10:22.202Z,-2.66
2022-12-13T07:11:28.993Z,-2.64
2022-12-13T07:12:32.881Z,-2.63
2022-12-13T07:13:36.060Z,-2.61
2022-12-13T07:14:41.014Z,-2.59
2022-12-13T07:15:44.657Z,-2.65
2022-12-13T07:16:47.899Z,-2.56
2022-12-13T07:17:51.823Z,-2.55
2022-12-13T07:18:54.542Z,-2.59
2022-12-13T07:20:09.259Z,-2.53
2022-12-13T07:21:21.655Z,-2.51
2022-12-13T07:22:25.622Z,-2.50
2022-12-13T07:23:30.420Z,-2.49
2022-12-13T07:24:33.663Z,-2.49
2022-12-13T07:25:36.991Z,-2.48
2022-12-13T07:26:39.225Z,-2.48
2022-12-13T07:27:44.743Z,-2.46
2022-12-13T07:28:53.059Z,-2.46
2022-12-13T07:29:58.201Z,-2.46
2022-12-13T07:31:02.471Z,-2.44
2022-12-13T07:32:06.038Z,-2.45
2022-12-13T07:33:08.621Z,-2.41
2022-12-13T07:34:15.613Z,-2.40
2022-12-13T07:35:19.064Z,-2.38
2022-12-13T07:36:24.358Z,-2.38
2022-12-13T07:37:30.060Z,-2.38
2022-12-13T07:38:35.634Z,-2.36
2022-12-13T07:39:39.011Z,-2.34
2022-12-13T07:40:42.396Z,-2.34
2022-12-13T07:41:45.599Z,-2.33
2022-12-13T07:42:51.149Z,-2.33
2022-12-13T07:43:56.073Z,-2.32
2022-12-13T07:44:59.493Z,-2.32
2022-12-13T07:46:04.204Z,-2.30
2022-12-13T07:47:07.461Z,-2.30
2022-12-13T07:48:10.677Z,-2.29
2022-12-13T07:49:13.889Z,-2.28
2022-12-13T07:50:24.326Z,-2.26
2022-12-13T07:51:28.806Z,-2.23
2022-12-13T07:52:31.975Z,-2.23
2022-12-13T07:53:36.804Z,-2.22
2022-12-13T07:54:40.237Z,-2.22
2022-12-13T07:55:43.469Z,-2.22
2022-12-13T07:56:46.685Z,-2.20
2022-12-13T07:57:49.829Z,-2.20
2022-12-13T07:58:53.365Z,-2.24
2022-12-13T07:59:55.614Z,-2.17
2022-12-13T08:01:01.335Z,-2.16
2022-12-13T08:02:04.672Z,-2.15
2022-12-13T08:03:12.153Z,-2.13
2022-12-13T08:04:27.528Z,-2.10
2022-12-13T08:05:38.337Z,-2.09
2022-12-13T08:06:42.418Z,-2.07
2022-12-13T08:07:44.577Z,-2.05
2022-12-13T08:08:51.206Z,-2.04
2022-12-13T08:09:55.373Z,-2.03
2022-12-13T08:11:02.394Z,-2.02
2022-12-13T08:12:06.415Z,-2.02
2022-12-13T08:13:09.722Z,-2.00
2022-12-13T08:14:12.952Z,-2.03
2022-12-13T08:15:16.296Z,-2.05
2022-12-13T08:16:27.350Z,-1.97
2022-12-13T08:17:32.305Z,-1.95
2022-12-13T08:18:34.538Z,-1.99
2022-12-13T08:19:37.701Z,-1.92
2022-12-13T08:20:40.876Z,-1.90
2022-12-13T08:22:01.488Z,-1.88
2022-12-13T08:23:05.264Z,-1.86
2022-12-13T08:24:15.466Z,-1.86
2022-12-13T08:25:19.257Z,-1.94
2022-12-13T08:26:25.017Z,-1.82
2022-12-13T08:27:28.522Z,-1.77
2022-12-13T08:28:32.909Z,-1.75
2022-12-13T08:29:36.569Z,-1.80
2022-12-13T08:30:39.779Z,-1.70
2022-12-13T08:31:43.000Z,-1.74
2022-12-13T08:32:46.289Z,-1.68
2022-12-13T08:33:49.675Z,-1.64
2022-12-13T08:34:52.855Z,-1.61
2022-12-13T08:35:55.031Z,-1.60
2022-12-13T08:37:02.001Z,-1.58
2022-12-13T08:38:06.359Z,-1.53
2022-12-13T08:39:11.007Z,-1.52
2022-12-13T08:40:14.246Z,-1.51
2022-12-13T08:41:17.462Z,-1.52
2022-12-13T08:42:20.719Z,-1.49
2022-12-13T08:43:24.865Z,-1.47
2022-12-13T08:44:28.499Z,-1.46
2022-12-13T08:45:32.214Z,-1.45
2022-12-13T08:46:35.563Z,-1.43
2022-12-13T08:47:41.803Z,-1.41
2022-12-13T08:48:45.474Z,-1.39
2022-12-13T08:49:47.906Z,-1.37
2022-12-13T08:50:51.342Z,-1.37
2022-12-13T08:51:54.469Z,-1.34
2022-12-13T08:52:57.756Z,-1.34
2022-12-13T08:54:10.461Z,-1.33
2022-12-13T08:55:18.990Z,-1.31
2022-12-13T08:56:24.386Z,-1.31
2022-12-13T08:57:27.568Z,-1.29
2022-12-13T08:58:31.463Z,-1.29
2022-12-13T08:59:34.608Z,-1.29
2022-12-13T09:00:38.530Z,-1.27
2022-12-13T09:01:41.827Z,-1.29
2022-12-13T09:02:45.304Z,-1.29
2022-12-13T09:03:47.597Z,-1.31
2022-12-13T09:04:50.762Z,-1.30
2022-12-13T09:05:53.921Z,-1.32
2022-12-13T09:06:57.207Z,-1.33
2022-12-13T09:08:24.030Z,-1.34
2022-12-13T09:09:29.321Z,-1.36
2022-12-13T09:10:38.470Z,-1.36
2022-12-13T09:11:42.033Z,-1.35
2022-12-13T09:12:45.214Z,-1.34
2022-12-13T09:13:48.642Z,-1.33
2022-12-13T09:14:51.821Z,-1.31
2022-12-13T09:15:55.066Z,-1.30
2022-12-13T09:17:05.095Z,-1.27
2022-12-13T09:18:08.353Z,-1.25
2022-12-13T09:19:25.194Z,-1.26
2022-12-13T09:20:30.222Z,-1.17
2022-12-13T09:21:33.745Z,-1.13
2022-12-13T09:22:36.994Z,-1.10
2022-12-13T09:23:48.468Z,-1.05
2022-12-13T09:24:51.841Z,-1.00
2022-12-13T09:26:05.546Z,-0.96
2022-12-13T09:27:27.532Z,-0.94
2022-12-13T09:28:31.942Z,-0.90
2022-12-13T09:29:36.558Z,-0.88
2022-12-13T09:30:40.597Z,-0.84
2022-12-13T09:31:48.308Z,-0.79
2022-12-13T09:32:57.401Z,-0.76
2022-12-13T09:34:00.624Z,-0.73
2022-12-13T09:35:05.303Z,-0.70
2022-12-13T09:36:11.765Z,-0.70
2022-12-13T09:37:14.980Z,-0.65
2022-12-13T09:38:26.436Z,-0.63
2022-12-13T09:39:29.766Z,-0.61
2022-12-13T09:40:37.857Z,-0.61
2022-12-13T09:41:47.198Z,-0.59
2022-12-13T09:43:11.856Z,-0.57
2022-12-13T09:44:30.997Z,-0.56
2022-12-13T09:45:42.981Z,-0.63
2022-12-13T09:46:48.532Z,-0.60
2022-12-13T09:47:53.872Z,-0.53
2022-12-13T09:49:13.424Z,-0.50
2022-12-13T09:50:25.652Z,-0.47
2022-12-13T09:51:39.503Z,-0.44
2022-12-13T09:52:47.507Z,-0.42
2022-12-13T09:53:54.349Z,-0.39
2022-12-13T09:54:59.524Z,-0.38
2022-12-13T09:56:10.049Z,-0.34
2022-12-13T09:57:31.133Z,-0.32
2022-12-13T09:58:37.282Z,-0.30
2022-12-13T09:59:42.823Z,-0.29
2022-12-13T10:00:48.431Z,-0.28
2022-12-13T10:01:51.959Z,-0.26
2022-12-13T10:02:58.243Z,-0.25
2022-12-13T10:04:02.290Z,-0.26
2022-12-13T10:05:22.874Z,-0.23
2022-12-13T10:06:31.487Z,-0.23
2022-12-13T10:07:34.692Z,-0.22
2022-12-13T10:08:44.690Z,-0.24
2022-12-13T10:09:48.696Z,-0.21
2022-12-13T10:10:53.970Z,-0.20
2022-12-13T10:12:00.565Z,-0.19
2022-12-13T10:13:17.830Z,-0.33
2022-12-13T10:14:27.555Z,-0.19
2022-12-13T10:15:34.411Z,-0.17
2022-12-13T10:16:46.128Z,-0.16
2022-12-13T10:17:51.952Z,-0.21
2022-12-13T10:18:59.144Z,-0.14
2022-12-13T10:20:04.552Z,-0.14
2022-12-13T10:21:12.830Z,-0.12
2022-12-13T10:22:17.989Z,-0.17
2022-12-13T10:23:38.543Z,-0.11
2022-12-13T10:24:53.073Z,-0.10
2022-12-13T10:26:02.937Z,-0.07
2022-12-13T10:27:13.687Z,-0.10
2022-12-13T10:28:19.832Z,-0.04
2022-12-13T10:29:23.198Z,-0.02
2022-12-13T10:30:29.173Z,-0.01
2022-12-13T10:31:41.581Z,0.01
2022-12-13T10:32:51.131Z,0.02
2022-12-13T10:33:58.445Z,0.03
2022-12-13T10:35:02.152Z,-0.02
2022-12-13T10:36:31.052Z,0.08
2022-12-13T10:37:34.309Z,0.10
2022-12-13T10:38:40.144Z,0.12
2022-12-13T10:39:44.633Z,0.06
2022-12-13T10:40:49.182Z,0.13
2022-12-13T10:42:04.014Z,0.13
2022-12-13T10:43:09.070Z,0.12
2022-12-13T10:44:25.364Z,0.09
2022-12-13T10:45:28.825Z,0.10
2022-12-13T10:46:38.358Z,0.09
2022-12-13T10:47:45.168Z,0.08
2022-12-13T10:48:50.481Z,0.07
2022-12-13T10:49:58.775Z,0.05
2022-12-13T10:51:05.360Z,0.06
2022-12-13T10:52:31.611Z,0.05
2022-12-13T10:53:40.280Z,0.03
2022-12-13T10:54:50.720Z,0.01
2022-12-13T10:56:02.258Z,0.01
2022-12-13T10:57:06.557Z,0.03
2022-12-13T10:58:20.952Z,0.03
2022-12-13T10:59:33.870Z,0.03
2022-12-13T11:00:41.068Z,0.04
2022-12-13T11:01:44.325Z,0.06
2022-12-13T11:02:55.320Z,0.06
2022-12-13T11:04:02.126Z,0.08
2022-12-13T11:05:25.178Z,0.10
2022-12-13T11:06:30.378Z,0.12
2022-12-13T11:07:34.854Z,0.14
2022-12-13T11:08:38.785Z,0.16
2022-12-13T11:09:42.009Z,0.18
2022-12-13T11:10:45.640Z,0.19
2022-12-13T11:11:57.990Z,0.21
2022-12-13T11:13:04.399Z,0.21
2022-12-13T11:14:14.935Z,0.24
2022-12-13T11:15:26.539Z,0.21
2022-12-13T11:16:35.350Z,0.18
2022-12-13T11:17:48.898Z,0.22
2022-12-13T11:18:55.340Z,0.25
2022-12-13T11:20:01.842Z,0.28
2022-12-13T11:21:07.767Z,0.28
2022-12-13T11:22:20.046Z,0.29
2022-12-13T11:23:29.791Z,0.32
2022-12-13T11:24:35.410Z,0.33
2022-12-13T11:25:42.451Z,0.33
2022-12-13T11:26:53.780Z,0.32
2022-12-13T11:28:26.588Z,0.32
2022-12-13T11:30:02.987Z,0.33
2022-12-13T11:31:14.519Z,0.30
2022-12-13T11:32:28.449Z,0.28
2022-12-13T11:33:48.031Z,0.33
2022-12-13T11:35:00.086Z,0.33
2022-12-13T11:36:16.289Z,0.33
2022-12-13T11:37:29.918Z,0.34
2022-12-13T11:38:37.489Z,0.30
2022-12-13T11:39:46.780Z,0.38
2022-12-13T11:40:54.292Z,0.37
2022-12-13T11:42:02.814Z,0.40
2022-12-13T11:43:13.260Z,0.40
2022-12-13T11:44:22.896Z,0.40
2022-12-13T11:45:31.876Z,0.41
2022-12-13T11:46:41.834Z,0.43
2022-12-13T11:47:49.369Z,0.44
2022-12-13T11:48:57.861Z,0.43
2022-12-13T11:50:04.559Z,0.44
2022-12-13T11:51:11.493Z,0.44
2022-12-13T11:52:20.061Z,0.48
2022-12-13T11:53:31.351Z,0.44
2022-12-13T11:54:43.980Z,0.49
2022-12-13T11:55:53.499Z,0.49
2022-12-13T11:57:00.224Z,0.47
2022-12-13T11:58:16.438Z,0.45
2022-12-13T11:59:29.713Z,0.50
2022-12-13T12:00:37.077Z,0.49
2022-12-13T12:01:47.375Z,0.53
2022-12-13T12:03:00.063Z,0.54
2022-12-13T12:04:13.853Z,0.55
2022-12-13T12:05:28.403Z,0.57
2022-12-13T12:06:38.631Z,0.57
2022-12-13T12:08:12.685Z,0.56
2022-12-13T12:09:15.977Z,0.55
2022-12-13T12:10:28.243Z,0.54
2022-12-13T12:11:36.853Z,0.54
2022-12-13T12:12:43.944Z,0.54
2022-12-13T12:13:52.722Z,0.52
2022-12-13T12:15:15.082Z,0.53
2022-12-13T12:16:28.458Z,0.54
2022-12-13T12:17:42.045Z,0.51
2022-12-13T12:18:45.878Z,0.55
2022-12-13T12:19:53.660Z,0.55
2022-12-13T12:21:07.341Z,0.54
2022-12-13T12:22:24.444Z,0.54
2022-12-13T12:23:46.233Z,0.52
2022-12-13T12:25:04.085Z,0.55
2022-12-13T12:26:10.253Z,0.56
2022-12-13T12:27:26.098Z,0.56
2022-12-13T12:28:44.331Z,0.58
2022-12-13T12:30:03.913Z,0.50
2022-12-13T12:31:17.050Z,0.61
2022-12-13T12:32:31.233Z,0.61
2022-12-13T12:33:46.334Z,0.62
2022-12-13T12:34:57.548Z,0.63
2022-12-13T12:36:15.419Z,0.64
2022-12-13T12:37:25.918Z,0.64
2022-12-13T12:38:58.991Z,0.64
2022-12-13T12:40:46.200Z,0.61
2022-12-13T12:42:17.413Z,0.53
2022-12-13T12:43:27.798Z,0.56
2022-12-13T12:44:43.616Z,0.60
2022-12-13T12:46:00.176Z,0.60
2022-12-13T12:49:02.138Z,0.61
2022-12-13T12:50:24.648Z,0.63
2022-12-13T12:51:34.908Z,0.64
2022-12-13T12:52:49.764Z,0.64
2022-12-13T12:54:00.926Z,0.66
2022-12-13T12:55:12.282Z,0.66
2022-12-13T12:56:36.611Z,0.68
2022-12-13T12:57:50.468Z,0.67
2022-12-13T12:59:05.978Z,0.68
2022-12-13T13:00:13.396Z,0.69
2022-12-13T13:01:34.694Z,0.67
2022-12-13T13:02:47.701Z,0.66
2022-12-13T13:04:01.482Z,0.66
2022-12-13T13:05:17.459Z,0.63
2022-12-13T13:06:24.591Z,0.62
2022-12-13T13:07:39.629Z,0.59
2022-12-13T13:08:54.838Z,0.60
2022-12-13T13:09:59.645Z,0.60
2022-12-13T13:11:25.122Z,0.61
2022-12-13T13:12:33.229Z,0.59
2022-12-13T13:13:46.593Z,0.57
2022-12-13T13:14:50.360Z,0.57
2022-12-13T13:15:59.759Z,0.54
2022-12-13T13:17:42.670Z,0.55
2022-12-13T13:18:50.933Z,0.54
2022-12-13T13:20:13.247Z,0.54
2022-12-13T13:21:41.999Z,0.53
2022-12-13T13:22:58.521Z,0.54
2022-12-13T13:24:24.909Z,0.53
2022-12-13T13:25:35.221Z,0.52
2022-12-13T13:26:49.816Z,0.51
2022-12-13T13:28:01.842Z,0.50
2022-12-13T13:29:38.984Z,0.45
2022-12-13T13:31:05.361Z,0.43
2022-12-13T13:32:31.824Z,0.41
2022-12-13T13:33:45.720Z,0.39
2022-12-13T13:35:00.661Z,0.37
2022-12-13T13:36:49.129Z,0.35
2022-12-13T13:37:52.332Z,0.29
2022-12-13T13:39:01.641Z,0.30
2022-12-13T13:40:31.680Z,0.29
2022-12-13T13:41:55.744Z,0.28
2022-12-13T13:43:19.381Z,0.25
2022-12-13T13:44:50.294Z,0.25
2022-12-13T13:46:00.501Z,0.22
2022-12-13T13:47:15.260Z,0.22
2022-12-13T13:48:36.824Z,0.21
2022-12-13T13:49:55.840Z,0.21
2022-12-13T13:51:49.401Z,0.23
2022-12-13T13:53:12.827Z,0.23
2022-12-13T13:54:55.914Z,0.23
2022-12-13T13:56:08.441Z,0.23
2022-12-13T13:58:09.727Z,0.15
2022-12-13T14:00:02.972Z,0.24
2022-12-13T14:02:01.046Z,0.23
2022-12-13T14:03:38.689Z,0.30
2022-12-13T14:05:31.717Z,0.35
2022-12-13T14:07:11.947Z,0.41
2022-12-13T14:08:20.802Z,0.45
2022-12-13T14:09:55.257Z,0.49
2022-12-13T14:11:23.562Z,0.54
2022-12-13T14:13:19.616Z,0.58
2022-12-13T14:15:01.310Z,0.61
2022-12-13T14:16:46.235Z,0.58
2022-12-13T14:18:22.009Z,0.51
2022-12-13T14:20:07.792Z,0.45
2022-12-13T14:21:38.618Z,0.39
2022-12-13T14:22:46.725Z,0.33
2022-12-13T14:24:01.763Z,0.30
2022-12-13T14:25:24.522Z,0.26
2022-12-13T14:26:43.346Z,0.24
2022-12-13T14:27:49.949Z,0.15
2022-12-13T14:28:57.191Z,0.19
2022-12-13T14:29:59.990Z,0.17
2022-12-13T14:31:03.290Z,0.14
2022-12-13T14:32:26.367Z,0.13
2022-12-13T14:33:30.947Z,0.10
2022-12-13T14:34:35.091Z,0.07
2022-12-13T14:35:38.243Z,0.05
2022-12-13T14:36:45.243Z,0.03
2022-12-13T14:38:00.932Z,0.00
2022-12-13T14:39:05.930Z,0.00
2022-12-13T14:40:27.670Z,-0.01
2022-12-13T14:41:31.061Z,-0.02
2022-12-13T14:42:35.801Z,-0.02
2022-12-13T14:43:39.076Z,-0.02
2022-12-13T14:44:42.318Z,-0.03
2022-12-13T14:45:46.306Z,-0.06
2022-12-13T14:46:50.949Z,-0.07
2022-12-13T14:47:55.211Z,-0.08
2022-12-13T14:49:01.624Z,-0.10
2022-12-13T14:50:07.989Z,-0.11
2022-12-13T14:51:30.932Z,-0.13
2022-12-13T14:52:39.605Z,-0.17